createdAt,value
2022-11-07T00:01:37.893Z,2.58
2022-11-07T00:04:05.199Z,2.03
2022-11-07T00:06:32.241Z,2.95
2022-11-07T00:08:59.797Z,2.97
2022-11-07T00:11:26.735Z,2.67
2022-11-07T00:13:54.216Z,3.03
2022-11-07T00:16:21.272Z,2.47
2022-11-07T00:18:48.362Z,2.38
2022-11-07T00:21:15.467Z,2.70
2022-11-07T00:23:43.501Z,2.63
2022-11-07T00:26:13.737Z,2.53
2022-11-07T00:28:43.197Z,3.00
2022-11-07T00:31:12.788Z,2.92
2022-11-07T00:33:40.584Z,2.78
2022-11-07T00:36:09.385Z,1.88
2022-11-07T00:38:36.795Z,2.65
2022-11-07T00:41:06.731Z,1.88
2022-11-07T00:43:34.594Z,1.75
2022-11-07T00:46:04.314Z,2.53
2022-11-07T00:48:32.192Z,2.97
2022-11-07T00:51:12.242Z,2.45
2022-11-07T00:53:40.020Z,1.75
2022-11-07T00:56:11.847Z,2.03
2022-11-07T00:58:41.511Z,2.17
2022-11-07T01:01:26.432Z,2.30
2022-11-07T01:04:12.378Z,1.80
2022-11-07T01:06:43.000Z,3.05
2022-11-07T01:09:14.801Z,2.63
2022-11-07T01:11:42.432Z,2.80
2022-11-07T01:14:12.071Z,2.30
2022-11-07T01:16:39.933Z,3.30
2022-11-07T01:19:07.989Z,2.47
2022-11-07T01:21:37.771Z,2.80
2022-11-07T01:24:06.523Z,2.90
2022-11-07T01:26:33.526Z,2.33
2022-11-07T01:29:00.509Z,1.80
2022-11-07T01:31:27.833Z,1.63
2022-11-07T01:33:55.047Z,3.13
2022-11-07T01:36:22.052Z,2.50
2022-11-07T01:38:49.324Z,1.63
2022-11-07T01:41:25.648Z,2.20
2022-11-07T01:43:57.303Z,1.90
2022-11-07T01:46:35.933Z,1.80
2022-11-07T01:49:17.606Z,2.65
2022-11-07T01:51:49.518Z,2.38
2022-11-07T01:54:26.853Z,2.10
2022-11-07T01:56:58.943Z,2.65
2022-11-07T01:59:29.493Z,2.42
2022-11-07T02:01:56.894Z,2.15
2022-11-07T02:04:27.891Z,2.45
2022-11-07T02:07:06.102Z,2.55
2022-11-07T02:09:33.440Z,2.80
2022-11-07T02:12:01.271Z,2.47
2022-11-07T02:14:29.988Z,1.75
2022-11-07T02:16:57.267Z,2.60
2022-11-07T02:19:44.273Z,2.40
2022-11-07T02:22:56.840Z,2.33
2022-11-07T02:25:23.932Z,2.92
2022-11-07T02:28:00.754Z,2.22
2022-11-07T02:30:34.679Z,2.95
2022-11-07T02:33:02.923Z,2.55
2022-11-07T02:35:44.489Z,2.30
2022-11-07T02:38:18.057Z,2.60
2022-11-07T02:40:50.259Z,2.22
2022-11-07T02:43:20.474Z,3.22
2022-11-07T02:45:49.915Z,2.60
2022-11-07T02:48:17.315Z,2.42
2022-11-07T02:50:45.110Z,3.47
2022-11-07T02:53:12.465Z,2.17
2022-11-07T02:55:40.179Z,2.42
2022-11-07T02:58:07.520Z,1.40
2022-11-07T03:00:34.580Z,3.03
2022-11-07T03:03:01.842Z,2.28
2022-11-07T03:05:28.928Z,2.42
2022-11-07T03:07:55.970Z,1.98
2022-11-07T03:10:22.964Z,2.75
2022-11-07T03:12:49.911Z,2.40
2022-11-07T03:15:16.902Z,2.95
2022-11-07T03:17:43.873Z,2.35
2022-11-07T03:20:11.596Z,2.60
2022-11-07T03:22:38.887Z,3.05
2022-11-07T03:25:07.682Z,4.00
2022-11-07T03:27:34.883Z,2.95
2022-11-07T03:30:02.020Z,2.30
2022-11-07T03:32:28.996Z,1.90
2022-11-07T03:34:56.017Z,3.05
2022-11-07T03:37:23.004Z,2.83
2022-11-07T03:39:49.977Z,1.88
2022-11-07T03:42:16.953Z,3.22
2022-11-07T03:44:43.952Z,2.17
2022-11-07T03:47:10.928Z,3.30
2022-11-07T03:49:37.925Z,2.30
2022-11-07T03:52:05.161Z,1.60
2022-11-07T03:54:32.096Z,3.05
2022-11-07T03:56:59.185Z,2.28
2022-11-07T03:59:26.215Z,2.55
2022-11-07T04:01:53.435Z,2.60
2022-11-07T04:04:20.542Z,1.92
2022-11-07T04:06:47.483Z,2.08
2022-11-07T04:09:14.493Z,3.03
2022-11-07T04:11:59.718Z,2.15
2022-11-07T04:14:45.422Z,2.20
2022-11-07T04:17:21.686Z,1.67
2022-11-07T04:19:51.826Z,2.00
2022-11-07T04:22:19.562Z,1.55
2022-11-07T04:24:46.864Z,1.77
2022-11-07T04:27:34.808Z,1.95
2022-11-07T04:30:23.878Z,3.15
2022-11-07T04:32:53.595Z,2.30
2022-11-07T04:35:24.099Z,2.08
2022-11-07T04:37:51.158Z,1.95
2022-11-07T04:40:19.799Z,1.42
2022-11-07T04:42:48.282Z,1.77
2022-11-07T04:45:16.373Z,2.05
2022-11-07T04:47:44.055Z,1.90
2022-11-07T04:50:14.659Z,1.92
2022-11-07T04:52:41.825Z,1.98
2022-11-07T04:55:18.774Z,2.67
2022-11-07T04:57:45.885Z,1.92
2022-11-07T05:00:13.741Z,2.63
2022-11-07T05:02:40.802Z,2.95
2022-11-07T05:05:08.420Z,3.50
2022-11-07T05:07:35.431Z,2.55
2022-11-07T05:10:02.434Z,2.42
2022-11-07T05:12:29.540Z,2.95
2022-11-07T05:14:56.629Z,2.58
2022-11-07T05:17:27.814Z,1.55
2022-11-07T05:19:55.175Z,2.17
2022-11-07T05:22:40.460Z,1.90
2022-11-07T05:25:08.590Z,2.80
2022-11-07T05:27:35.543Z,2.17
2022-11-07T05:30:02.613Z,2.13
2022-11-07T05:32:29.587Z,1.92
2022-11-07T05:34:56.644Z,2.38
2022-11-07T05:37:23.657Z,1.95
2022-11-07T05:39:54.831Z,2.28
2022-11-07T05:42:22.179Z,2.80
2022-11-07T05:44:49.142Z,3.08
2022-11-07T05:47:16.119Z,2.97
2022-11-07T05:49:43.246Z,2.25
2022-11-07T05:52:10.241Z,2.60
2022-11-07T05:54:37.209Z,1.75
2022-11-07T05:57:04.280Z,1.67
2022-11-07T05:59:31.357Z,1.63
2022-11-07T06:01:58.453Z,2.50
2022-11-07T06:04:25.466Z,1.88
2022-11-07T06:06:52.414Z,1.80
2022-11-07T06:09:19.372Z,2.45
2022-11-07T06:11:46.387Z,1.88
2022-11-07T06:14:13.384Z,1.65
2022-11-07T06:16:40.307Z,1.65
2022-11-07T06:19:07.303Z,1.70
2022-11-07T06:21:35.527Z,2.22
2022-11-07T06:24:03.416Z,2.20
2022-11-07T06:26:30.584Z,1.80
2022-11-07T06:28:57.566Z,1.83
2022-11-07T06:31:24.557Z,2.03
2022-11-07T06:33:52.039Z,1.52
2022-11-07T06:36:19.555Z,1.90
2022-11-07T06:38:51.520Z,1.67
2022-11-07T06:41:18.484Z,1.77
2022-11-07T06:43:45.406Z,1.83
2022-11-07T06:46:14.294Z,1.55
2022-11-07T06:48:41.249Z,2.03
2022-11-07T06:51:09.988Z,1.70
2022-11-07T06:53:38.170Z,1.50
2022-11-07T06:56:08.451Z,2.63
2022-11-07T06:58:36.403Z,2.47
2022-11-07T07:01:06.632Z,1.95
2022-11-07T07:03:33.640Z,1.90
2022-11-07T07:06:03.582Z,1.90
2022-11-07T07:08:31.147Z,2.05
2022-11-07T07:11:07.372Z,2.00
2022-11-07T07:13:35.228Z,1.90
2022-11-07T07:16:02.713Z,1.70
2022-11-07T07:18:30.952Z,2.00
2022-11-07T07:21:11.461Z,1.75
2022-11-07T07:23:39.175Z,1.88
2022-11-07T07:26:11.947Z,1.73
2022-11-07T07:28:38.966Z,1.90
2022-11-07T07:31:14.892Z,1.67
2022-11-07T07:33:43.053Z,2.65
2022-11-07T07:36:10.795Z,1.80
2022-11-07T07:38:38.577Z,1.88
2022-11-07T07:41:06.372Z,1.60
2022-11-07T07:43:33.789Z,2.80
2022-11-07T07:46:04.098Z,1.77
2022-11-07T07:48:31.723Z,2.00
2022-11-07T07:50:59.195Z,1.85
2022-11-07T07:53:26.382Z,1.83
2022-11-07T07:56:00.644Z,1.80
2022-11-07T07:58:28.083Z,1.92
2022-11-07T08:00:59.188Z,1.50
2022-11-07T08:03:31.959Z,2.35
2022-11-07T08:06:03.011Z,1.55
2022-11-07T08:08:35.281Z,1.50
2022-11-07T08:11:08.685Z,1.27
2022-11-07T08:13:36.321Z,1.67
2022-11-07T08:16:05.453Z,2.00
2022-11-07T08:18:32.539Z,2.17
2022-11-07T08:20:59.540Z,1.60
2022-11-07T08:23:26.475Z,1.58
2022-11-07T08:25:59.003Z,1.80
2022-11-07T08:28:30.563Z,1.33
2022-11-07T08:31:05.793Z,2.00
2022-11-07T08:33:33.338Z,1.70
2022-11-07T08:36:02.740Z,1.77
2022-11-07T08:38:31.870Z,1.67
2022-11-07T08:40:59.282Z,2.50
2022-11-07T08:43:27.023Z,1.92
2022-11-07T08:45:55.227Z,1.77
2022-11-07T08:48:23.268Z,1.55
2022-11-07T08:50:56.078Z,1.92
2022-11-07T08:53:25.038Z,2.20
2022-11-07T08:55:52.456Z,2.38
2022-11-07T08:58:20.084Z,1.63
2022-11-07T09:00:47.242Z,1.30
2022-11-07T09:06:03.078Z,1.60
2022-11-07T09:08:30.141Z,1.90
2022-11-07T09:11:04.918Z,2.17
2022-11-07T09:13:33.943Z,1.42
2022-11-07T09:16:02.681Z,1.75
2022-11-07T09:18:32.427Z,3.58
2022-11-07T09:21:00.292Z,2.22
2022-11-07T09:23:27.824Z,1.77
2022-11-07T09:25:55.460Z,1.65
2022-11-07T09:28:22.600Z,1.85
2022-11-07T09:30:57.599Z,2.38
2022-11-07T09:33:25.643Z,1.50
2022-11-07T09:35:52.934Z,1.98
2022-11-07T09:38:20.344Z,1.60
2022-11-07T09:41:04.749Z,1.58
2022-11-07T09:43:50.274Z,1.65
2022-11-07T09:46:45.804Z,1.80
2022-11-07T09:49:20.994Z,1.70
2022-11-07T09:51:55.611Z,1.75
2022-11-07T09:54:28.674Z,1.65
2022-11-07T09:56:58.675Z,1.45
2022-11-07T09:59:42.213Z,2.70
2022-11-07T10:02:17.666Z,1.80
2022-11-07T10:04:46.289Z,1.83
2022-11-07T10:07:49.237Z,1.48
2022-11-07T10:10:44.608Z,1.58
2022-11-07T10:14:19.240Z,2.33
2022-11-07T10:17:13.622Z,2.55
2022-11-07T10:19:52.163Z,2.50
2022-11-07T10:22:22.206Z,2.67
2022-11-07T10:25:13.224Z,2.28
2022-11-07T10:27:40.528Z,3.65
2022-11-07T10:30:25.516Z,2.40
2022-11-07T10:33:31.751Z,2.50
2022-11-07T10:36:13.502Z,2.50
2022-11-07T10:38:42.340Z,2.30
2022-11-07T10:41:20.683Z,2.22
2022-11-07T10:43:58.499Z,1.88
2022-11-07T10:46:36.630Z,2.53
2022-11-07T10:49:13.240Z,2.33
2022-11-07T10:51:42.882Z,2.00
2022-11-07T10:54:30.565Z,2.15
2022-11-07T10:57:09.556Z,1.38
2022-11-07T10:59:57.850Z,1.60
2022-11-07T11:02:32.652Z,1.77
2022-11-07T11:05:03.006Z,2.08
2022-11-07T11:07:40.867Z,1.90
2022-11-07T11:10:27.384Z,1.75
2022-11-07T11:12:54.949Z,1.63
2022-11-07T11:15:29.944Z,2.05
2022-11-07T11:18:06.365Z,1.60
2022-11-07T11:20:40.892Z,2.67
2022-11-07T11:23:19.861Z,1.77
2022-11-07T11:25:50.532Z,1.80
2022-11-07T11:28:33.431Z,1.52
2022-11-07T11:31:09.880Z,2.63
2022-11-07T11:33:49.626Z,1.83
2022-11-07T11:36:24.290Z,2.90
2022-11-07T11:38:54.921Z,1.48
2022-11-07T11:41:32.385Z,2.65
2022-11-07T11:44:23.196Z,2.30
2022-11-07T11:47:03.360Z,2.22
2022-11-07T11:49:32.640Z,2.05
2022-11-07T11:52:22.456Z,2.47
2022-11-07T11:54:52.523Z,2.95
2022-11-07T11:57:33.697Z,2.38
2022-11-07T12:00:10.365Z,2.83
2022-11-07T12:03:20.081Z,3.85
2022-11-07T12:06:08.723Z,2.85
2022-11-07T12:09:04.173Z,2.50
2022-11-07T12:11:54.809Z,3.22
2022-11-07T12:15:09.799Z,2.70
2022-11-07T12:18:00.172Z,2.22
2022-11-07T12:21:15.203Z,3.15
2022-11-07T12:24:20.517Z,2.17
2022-11-07T12:27:03.405Z,2.72
2022-11-07T12:29:59.319Z,2.63
2022-11-07T12:32:50.112Z,3.38
2022-11-07T12:35:41.669Z,2.90
2022-11-07T12:38:29.913Z,2.50
2022-11-07T12:41:36.011Z,3.08
2022-11-07T12:44:26.871Z,3.33
2022-11-07T12:47:01.258Z,2.58
2022-11-07T12:50:16.611Z,2.70
2022-11-07T12:53:11.043Z,3.83
2022-11-07T12:55:50.236Z,2.25
2022-11-07T12:58:28.496Z,2.25
2022-11-07T13:00:56.283Z,2.75
2022-11-07T13:03:59.280Z,2.90
2022-11-07T13:07:11.412Z,3.20
2022-11-07T13:10:04.286Z,2.47
2022-11-07T13:12:47.290Z,3.15
2022-11-07T13:15:16.597Z,3.67
2022-11-07T13:17:46.915Z,2.80
2022-11-07T13:20:29.261Z,2.47
2022-11-07T13:23:00.485Z,2.95
2022-11-07T13:25:31.185Z,3.88
2022-11-07T13:27:58.248Z,3.45
2022-11-07T13:30:31.393Z,3.70
2022-11-07T13:33:00.583Z,3.70
2022-11-07T13:35:40.330Z,3.17
2022-11-07T13:38:16.847Z,2.47
2022-11-07T13:41:06.450Z,3.10
2022-11-07T13:43:58.623Z,3.13
2022-11-07T13:46:43.532Z,2.40
2022-11-07T13:49:29.821Z,3.30
2022-11-07T13:52:03.617Z,3.65
2022-11-07T13:54:57.577Z,3.13
2022-11-07T13:57:31.164Z,2.95
2022-11-07T14:00:14.398Z,3.10
2022-11-07T14:02:54.645Z,2.47
2022-11-07T14:05:35.238Z,2.60
2022-11-07T14:08:19.789Z,3.20
2022-11-07T14:10:50.384Z,2.75
2022-11-07T14:13:44.010Z,2.65
2022-11-07T14:16:38.040Z,2.65
2022-11-07T14:19:12.854Z,3.80
2022-11-07T14:21:44.728Z,2.33
2022-11-07T14:24:20.793Z,2.67
2022-11-07T14:26:58.392Z,2.35
2022-11-07T14:29:25.672Z,3.13
2022-11-07T14:31:53.155Z,2.95
2022-11-07T14:34:22.677Z,2.63
2022-11-07T14:36:59.057Z,2.80
2022-11-07T14:39:31.042Z,2.58
2022-11-07T14:42:02.099Z,3.03
2022-11-07T14:44:54.021Z,2.83
2022-11-07T14:47:31.994Z,2.85
2022-11-07T14:50:01.971Z,3.22
2022-11-07T14:52:48.420Z,3.35
2022-11-07T14:55:31.077Z,3.40
2022-11-07T14:58:03.832Z,3.10
2022-11-07T15:00:32.690Z,2.38
2022-11-07T15:03:01.231Z,2.65
2022-11-07T15:05:37.469Z,3.17
2022-11-07T15:08:04.800Z,2.90
2022-11-07T15:10:36.877Z,2.75
2022-11-07T15:13:25.801Z,2.88
2022-11-07T15:16:16.978Z,3.03
2022-11-07T15:18:48.973Z,2.50
2022-11-07T15:21:39.237Z,2.65
2022-11-07T15:24:32.581Z,2.80
2022-11-07T15:27:23.153Z,2.63
2022-11-07T15:29:58.992Z,2.80
2022-11-07T15:32:45.454Z,2.13
2022-11-07T15:35:42.892Z,3.28
2022-11-07T15:38:16.602Z,2.92
2022-11-07T15:40:43.980Z,3.13
2022-11-07T15:43:11.067Z,2.08
2022-11-07T15:45:38.216Z,2.17
2022-11-07T15:48:07.888Z,3.95
2022-11-07T15:50:42.457Z,3.53
2022-11-07T15:53:23.737Z,2.28
2022-11-07T15:55:58.087Z,3.13
2022-11-07T15:58:28.569Z,5.20
2022-11-07T16:00:57.401Z,3.70
2022-11-07T16:03:26.121Z,4.20
2022-11-07T16:05:55.920Z,2.63
2022-11-07T16:08:24.693Z,3.35
2022-11-07T16:10:56.244Z,3.78
2022-11-07T16:13:23.375Z,3.10
2022-11-07T16:16:01.254Z,4.25
2022-11-07T16:18:36.404Z,3.95
2022-11-07T16:21:03.804Z,4.32
2022-11-07T16:23:30.916Z,3.70
2022-11-07T16:25:58.647Z,3.33
2022-11-07T16:28:40.345Z,5.35
2022-11-07T16:31:10.193Z,5.28
2022-11-07T16:33:37.304Z,3.30
2022-11-07T16:36:21.965Z,5.13
2022-11-07T16:38:49.413Z,3.22
2022-11-07T16:41:16.614Z,3.25
2022-11-07T16:43:59.228Z,2.47
2022-11-07T16:46:44.467Z,3.10
2022-11-07T16:49:34.054Z,2.53
2022-11-07T16:52:01.784Z,3.78
2022-11-07T16:54:29.085Z,3.83
2022-11-07T16:56:56.767Z,3.63
2022-11-07T16:59:24.979Z,4.80
2022-11-07T17:01:53.528Z,4.07
2022-11-07T17:04:20.768Z,3.20
2022-11-07T17:06:48.326Z,2.50
2022-11-07T17:09:17.288Z,2.60
2022-11-07T17:11:45.582Z,2.50
2022-11-07T17:14:13.043Z,2.25
2022-11-07T17:16:44.531Z,3.50
2022-11-07T17:19:13.443Z,2.58
2022-11-07T17:21:46.290Z,3.72
2022-11-07T17:24:13.929Z,3.05
2022-11-07T17:26:41.522Z,2.72
2022-11-07T17:29:14.763Z,2.65
2022-11-07T17:31:42.825Z,2.80
2022-11-07T17:34:10.546Z,3.20
2022-11-07T17:36:46.134Z,3.72
2022-11-07T17:39:21.822Z,2.67
2022-11-07T17:41:51.324Z,3.08
2022-11-07T17:44:19.462Z,2.60
2022-11-07T17:46:49.952Z,3.33
2022-11-07T17:49:19.684Z,2.60
2022-11-07T17:51:46.965Z,2.60
2022-11-07T17:54:15.834Z,3.72
2022-11-07T17:56:43.737Z,3.83
2022-11-07T17:59:17.510Z,2.70
2022-11-07T18:01:46.117Z,4.35
2022-11-07T18:04:40.326Z,4.90
2022-11-07T18:07:07.930Z,2.92
2022-11-07T18:09:35.679Z,5.05
2022-11-07T18:12:04.817Z,3.75
2022-11-07T18:14:33.189Z,3.20
2022-11-07T18:17:00.323Z,4.28
2022-11-07T18:19:48.491Z,3.92
2022-11-07T18:22:15.943Z,7.03
2022-11-07T18:24:43.281Z,4.40
2022-11-07T18:27:10.867Z,3.05
2022-11-07T18:29:42.231Z,3.80
2022-11-07T18:32:09.492Z,3.08
2022-11-07T18:34:36.597Z,3.45
2022-11-07T18:37:03.802Z,3.83
2022-11-07T18:39:30.944Z,5.00
2022-11-07T18:41:58.454Z,5.43
2022-11-07T18:44:25.596Z,3.67
2022-11-07T18:46:52.638Z,4.00
2022-11-07T18:49:19.794Z,3.50
2022-11-07T18:51:46.933Z,2.90
2022-11-07T18:54:14.429Z,3.53
2022-11-07T18:56:42.555Z,3.88
2022-11-07T18:59:10.536Z,3.20
2022-11-07T19:01:37.781Z,2.60
2022-11-07T19:04:06.919Z,5.13
2022-11-07T19:06:34.412Z,5.28
2022-11-07T19:09:01.779Z,4.00
2022-11-07T19:11:34.133Z,5.18
2022-11-07T19:14:06.048Z,5.07
2022-11-07T19:16:33.186Z,5.85
2022-11-07T19:19:00.762Z,5.55
2022-11-07T19:21:28.019Z,4.53
2022-11-07T19:23:59.481Z,3.90
2022-11-07T19:26:26.890Z,3.53
2022-11-07T19:28:56.629Z,3.85
2022-11-07T19:31:23.901Z,4.55
2022-11-07T19:33:51.112Z,3.70
2022-11-07T19:36:23.774Z,2.78
2022-11-07T19:38:51.391Z,3.38
2022-11-07T19:41:21.983Z,3.25
2022-11-07T19:43:50.299Z,3.50
2022-11-07T19:46:24.844Z,2.90
2022-11-07T19:48:54.443Z,4.35
2022-11-07T19:51:24.792Z,4.35
2022-11-07T19:54:14.963Z,5.20
2022-11-07T19:56:42.194Z,3.83
2022-11-07T19:59:13.214Z,2.60
2022-11-07T20:01:40.479Z,3.28
2022-11-07T20:04:08.938Z,2.70
2022-11-07T20:06:38.525Z,3.47
2022-11-07T20:09:13.097Z,6.53
2022-11-07T20:11:40.287Z,3.33
2022-11-07T20:14:07.395Z,2.80
2022-11-07T20:16:37.844Z,3.83
2022-11-07T20:19:05.898Z,4.43
2022-11-07T20:21:36.276Z,5.07
2022-11-07T20:24:12.668Z,3.35
2022-11-07T20:26:42.801Z,3.08
2022-11-07T20:29:14.129Z,3.97
2022-11-07T20:31:44.122Z,3.95
2022-11-07T20:34:19.010Z,3.15
2022-11-07T20:36:54.020Z,3.72
2022-11-07T20:39:21.240Z,6.45
2022-11-07T20:41:48.183Z,5.82
2022-11-07T20:44:16.030Z,5.50
2022-11-07T20:46:45.497Z,4.00
2022-11-07T20:49:15.725Z,5.07
2022-11-07T20:51:44.165Z,4.85
2022-11-07T20:54:16.267Z,3.90
2022-11-07T20:56:44.212Z,5.22
2022-11-07T20:59:11.681Z,3.78
2022-11-07T21:01:38.842Z,5.65
2022-11-07T21:04:09.166Z,3.60
2022-11-07T21:06:36.612Z,3.63
2022-11-07T21:09:04.917Z,3.25
2022-11-07T21:11:32.605Z,3.78
2022-11-07T21:14:00.335Z,3.72
2022-11-07T21:16:27.731Z,3.80
2022-11-07T21:18:55.758Z,3.55
2022-11-07T21:21:27.596Z,5.10
2022-11-07T21:23:57.209Z,3.78
2022-11-07T21:26:28.756Z,4.32
2022-11-07T21:28:56.724Z,4.28
2022-11-07T21:31:28.735Z,5.80
2022-11-07T21:33:56.489Z,4.13
2022-11-07T21:36:34.030Z,4.68
2022-11-07T21:39:01.713Z,5.05
2022-11-07T21:41:30.777Z,5.00
2022-11-07T21:43:59.222Z,4.68
2022-11-07T21:46:39.893Z,5.30
2022-11-07T21:49:07.358Z,5.75
2022-11-07T21:51:35.893Z,4.75
2022-11-07T21:54:05.634Z,5.22
2022-11-07T21:56:36.581Z,4.18
2022-11-07T21:59:07.621Z,6.00
2022-11-07T22:01:37.141Z,5.25
2022-11-07T22:04:12.393Z,6.25
2022-11-07T22:06:43.925Z,6.25
2022-11-07T22:09:15.924Z,5.10
2022-11-07T22:11:43.173Z,6.07
2022-11-07T22:14:21.352Z,5.55
2022-11-07T22:16:49.999Z,4.70
2022-11-07T22:19:18.404Z,3.85
2022-11-07T22:21:45.453Z,5.30
2022-11-07T22:24:12.434Z,6.35
2022-11-07T22:26:39.486Z,3.47
2022-11-07T22:29:06.510Z,4.30
2022-11-07T22:31:33.529Z,4.63
2022-11-07T22:34:01.130Z,4.53
2022-11-07T22:36:29.186Z,5.50
2022-11-07T22:38:57.920Z,4.00
2022-11-07T22:41:27.092Z,4.32
2022-11-07T22:43:54.260Z,4.20
2022-11-07T22:46:24.236Z,4.70
2022-11-07T22:48:52.900Z,7.03
2022-11-07T22:51:26.163Z,4.80
2022-11-07T22:54:05.770Z,3.25
2022-11-07T22:56:35.387Z,4.43
2022-11-07T22:59:04.076Z,2.97
2022-11-07T23:01:35.324Z,4.40
2022-11-07T23:04:02.720Z,4.43
2022-11-07T23:06:30.315Z,4.82
2022-11-07T23:08:58.769Z,3.95
2022-11-07T23:11:45.905Z,5.03
2022-11-07T23:14:16.143Z,4.63
2022-11-07T23:16:47.927Z,5.45
2022-11-07T23:19:17.641Z,4.65
2022-11-07T23:21:44.759Z,4.53
2022-11-07T23:24:12.166Z,4.72
2022-11-07T23:26:39.534Z,4.38
2022-11-07T23:29:11.646Z,4.38
2022-11-07T23:31:45.573Z,6.00
2022-11-07T23:34:13.660Z,3.85
2022-11-07T23:36:46.592Z,3.80
2022-11-07T23:39:17.442Z,4.25
2022-11-07T23:41:47.330Z,4.05
2022-11-07T23:44:15.465Z,3.72
2022-11-07T23:47:01.413Z,4.18
2022-11-07T23:49:47.121Z,7.65
2022-11-07T23:52:14.996Z,4.53
2022-11-07T23:55:00.636Z,4.40
2022-11-07T23:57:27.619Z,4.80
